Etusivu
METAR-TAF:

METAR-TAF

Lentoasemat :

Nouakchott, Mauritania

Nouakchottin kansainvälinen lentoasema

Leveyspiiri: 18-18-36N, Pituuspiiri: 015-58-11W, korkeus merenpinnasta: 3 m

Tämänhetkinen sää

Tämä raportti tehtiin 18 tuntia ja 11 minuuttia sitten, kello 15.00 UTC
Tuuli 17 kn luoteesta
Lämpötila 28°C
Kosteus 32%
Ilmanpaine 1009 hPa
Näkyvyys: 8000 m

METAR: GQNO 201500Z 32017KT 8000 NSC 28/10 Q1009 NOSIG

Aika: 09:11 (09:11 UTC)

Sääennuste

Tämä raportti tehtiin 22 tuntia ja 11 minuuttia sitten, kello 11.00 UTC
Ennuste voimassa 20. päivästä klo 12 UTC - 21. päivään klo 18 UTC
Tuuli 12 kn pohjoisesta/koillisesta
Näkyvyys: 8000 m
Tulossa
20. päivästä klo 16 UTC - 20. päivään klo 19 UTC
Tuuli 14 kn pohjoisen/luoteesta

TAF: GQNO 201100Z 2012/2118 03012KT 8000 NSC BECMG 2016/2019 33014KT

Säähavainnot ja -ennusteet yli 4000 lentoasemalta (METAR- ja TAF-raportit).

Käytössä olevat sääasemat on merkitty karttaan keltaisilla ja punaisilla pisteillä.

Aseta hiiri pisteen päälle nähdäksesi sääaseman nimen.

Klikkaa sitten nähdäksesi säähavainnot ja -ennusteet.

Kartan vaihtaminen: klikkaa mustalla rastilla varustettuja vihreitä pisteitä, niin voit zoomata sisään; viivalla varustettua vihreää pistettä, niin voit zoomata ulos tai vihreitä nuolia, niin pääset viereisille kartoille.


METAR-TAF: